createdAt,value
2023-10-06T00:00:36.208Z,7.78
2023-10-06T00:03:46.373Z,7.64
2023-10-06T00:06:51.215Z,7.84
2023-10-06T00:09:56.524Z,7.61
2023-10-06T00:13:01.438Z,7.94
2023-10-06T00:16:09.378Z,8.05
2023-10-06T00:19:25.001Z,8.19
2023-10-06T00:22:31.156Z,8.15
2023-10-06T00:25:38.347Z,7.89
2023-10-06T00:28:42.421Z,7.93
2023-10-06T00:31:49.927Z,7.97
2023-10-06T00:34:57.559Z,8.15
2023-10-06T00:38:14.904Z,8.14
2023-10-06T00:41:22.221Z,8.20
2023-10-06T00:44:26.692Z,8.44
2023-10-06T00:47:41.161Z,8.18
2023-10-06T00:50:45.915Z,8.12
2023-10-06T00:53:54.215Z,8.46
2023-10-06T00:57:00.283Z,8.38
2023-10-06T01:00:17.902Z,8.60
2023-10-06T01:03:27.523Z,8.36
2023-10-06T01:06:38.342Z,8.80
2023-10-06T01:09:58.715Z,8.72
2023-10-06T01:13:14.442Z,8.53
2023-10-06T01:16:28.549Z,8.74
2023-10-06T01:19:35.274Z,8.81
2023-10-06T01:22:46.463Z,8.91
2023-10-06T01:25:57.881Z,8.80
2023-10-06T01:29:06.124Z,8.72
2023-10-06T01:32:11.892Z,8.73
2023-10-06T01:35:39.654Z,8.63
2023-10-06T01:38:45.753Z,8.48
2023-10-06T01:41:52.198Z,8.66
2023-10-06T01:45:00.982Z,8.66
2023-10-06T01:48:15.570Z,8.74
2023-10-06T01:51:19.469Z,8.80
2023-10-06T01:54:29.905Z,8.71
2023-10-06T01:57:34.629Z,8.67
2023-10-06T02:00:50.034Z,8.89
2023-10-06T02:03:55.428Z,9.13
2023-10-06T02:07:00.725Z,8.98
2023-10-06T02:10:06.006Z,9.06
2023-10-06T02:13:10.088Z,8.96
2023-10-06T02:16:19.819Z,9.10
2023-10-06T02:19:24.483Z,8.98
2023-10-06T02:22:29.761Z,9.16
2023-10-06T02:25:34.135Z,9.44
2023-10-06T02:28:46.084Z,9.59
2023-10-06T02:31:54.678Z,9.39
2023-10-06T02:35:01.530Z,9.52
2023-10-06T02:38:08.754Z,9.37
2023-10-06T02:41:27.944Z,9.01
2023-10-06T02:44:32.441Z,9.28
2023-10-06T02:47:38.574Z,9.19
2023-10-06T02:50:48.376Z,9.24
2023-10-06T02:53:52.975Z,9.29
2023-10-06T02:56:58.023Z,9.44
2023-10-06T03:00:22.279Z,9.31
2023-10-06T03:03:29.934Z,9.75
2023-10-06T03:06:38.553Z,9.69
2023-10-06T03:09:50.207Z,9.52
2023-10-06T03:12:55.288Z,9.76
2023-10-06T03:16:00.051Z,9.70
2023-10-06T03:19:05.129Z,9.75
2023-10-06T03:22:12.250Z,9.98
2023-10-06T03:25:18.829Z,10.01
2023-10-06T03:28:38.501Z,9.72
2023-10-06T03:31:49.340Z,9.88
2023-10-06T03:35:19.692Z,9.96
2023-10-06T03:38:24.077Z,9.70
2023-10-06T03:41:33.050Z,9.87
2023-10-06T03:44:37.844Z,9.59
2023-10-06T03:47:42.252Z,9.23
2023-10-06T03:50:47.460Z,9.63
2023-10-06T03:53:51.528Z,9.36
2023-10-06T03:56:56.105Z,9.40
2023-10-06T04:00:00.503Z,9.87
2023-10-06T04:03:06.767Z,9.94
2023-10-06T04:06:17.452Z,10.07
2023-10-06T04:09:30.343Z,9.65
2023-10-06T04:12:36.176Z,9.52
2023-10-06T04:15:56.255Z,9.77
2023-10-06T04:19:05.674Z,9.94
2023-10-06T04:22:10.620Z,9.82
2023-10-06T04:25:19.310Z,9.76
2023-10-06T04:28:27.230Z,9.62
2023-10-06T04:31:31.837Z,9.59
2023-10-06T04:34:39.199Z,9.76
2023-10-06T04:37:49.553Z,9.84
2023-10-06T04:40:54.043Z,9.88
2023-10-06T04:44:04.178Z,9.89
2023-10-06T04:47:12.226Z,9.90
2023-10-06T04:50:18.147Z,9.81
2023-10-06T04:53:22.777Z,9.71
2023-10-06T04:56:31.886Z,9.67
2023-10-06T04:59:38.889Z,9.71
2023-10-06T05:02:52.247Z,9.76
2023-10-06T05:05:59.732Z,9.55
2023-10-06T05:09:05.095Z,9.69
2023-10-06T05:12:09.230Z,9.76
2023-10-06T05:15:24.366Z,9.90
2023-10-06T05:18:37.183Z,9.87
2023-10-06T05:21:44.653Z,9.93
2023-10-06T05:24:49.578Z,10.07
2023-10-06T05:28:18.553Z,9.69
2023-10-06T05:31:26.832Z,9.70
2023-10-06T05:34:31.722Z,9.64
2023-10-06T05:37:36.312Z,9.33
2023-10-06T05:40:40.751Z,9.42
2023-10-06T05:43:45.380Z,9.40
2023-10-06T05:46:49.332Z,9.39
2023-10-06T05:49:55.860Z,9.65
2023-10-06T05:53:03.566Z,9.45
2023-10-06T05:56:11.439Z,9.64
2023-10-06T05:59:21.109Z,9.52
2023-10-06T06:02:29.373Z,9.62
2023-10-06T06:05:38.021Z,9.68
2023-10-06T06:08:49.691Z,9.74
2023-10-06T06:11:54.409Z,9.92
2023-10-06T06:14:58.470Z,9.93
2023-10-06T06:18:15.614Z,9.78
2023-10-06T06:21:28.258Z,9.56
2023-10-06T06:24:34.776Z,9.76
2023-10-06T06:27:39.634Z,9.83
2023-10-06T06:30:44.048Z,9.91
2023-10-06T06:33:58.815Z,9.90
2023-10-06T06:37:03.059Z,9.69
2023-10-06T06:40:13.049Z,9.92
2023-10-06T06:43:19.472Z,9.77
2023-10-06T06:46:26.572Z,9.63
2023-10-06T06:49:30.763Z,9.50
2023-10-06T06:52:36.929Z,10.01
2023-10-06T06:55:43.063Z,9.91
2023-10-06T06:58:50.739Z,10.02
2023-10-06T07:01:55.068Z,9.82
2023-10-06T07:04:59.514Z,10.19
2023-10-06T07:08:07.274Z,9.74
2023-10-06T07:11:15.502Z,9.46
2023-10-06T07:14:19.495Z,9.88
2023-10-06T07:17:25.141Z,9.69
2023-10-06T07:20:32.455Z,9.44
2023-10-06T07:23:55.031Z,9.21
2023-10-06T07:26:59.063Z,9.69
2023-10-06T07:30:06.778Z,9.82
2023-10-06T07:33:11.229Z,9.62
2023-10-06T07:36:25.697Z,9.71
2023-10-06T07:39:30.086Z,9.74
2023-10-06T07:42:35.657Z,9.92
2023-10-06T07:45:40.311Z,9.80
2023-10-06T07:48:47.890Z,9.63
2023-10-06T07:51:51.854Z,9.59
2023-10-06T07:55:00.583Z,9.52
2023-10-06T07:58:09.839Z,9.78
2023-10-06T08:01:24.277Z,9.62
2023-10-06T08:04:28.761Z,9.53
2023-10-06T08:07:35.547Z,9.36
2023-10-06T08:10:40.302Z,9.54
2023-10-06T08:13:45.014Z,9.56
2023-10-06T08:16:52.140Z,9.34
2023-10-06T08:19:57.645Z,9.38
2023-10-06T08:23:07.283Z,9.50
2023-10-06T08:26:15.936Z,9.46
2023-10-06T08:29:20.117Z,9.35
2023-10-06T08:32:26.052Z,9.33
2023-10-06T08:35:30.492Z,9.19
2023-10-06T08:38:35.029Z,9.19
2023-10-06T08:41:47.545Z,9.26
2023-10-06T08:44:51.954Z,9.09
2023-10-06T08:48:03.273Z,9.31
2023-10-06T08:51:16.501Z,9.25
2023-10-06T08:54:21.627Z,8.95
2023-10-06T08:57:27.437Z,9.25
2023-10-06T09:00:33.672Z,9.08
2023-10-06T09:03:40.907Z,9.03
2023-10-06T09:07:09.220Z,9.10
2023-10-06T09:10:20.347Z,8.88
2023-10-06T09:13:24.441Z,8.96
2023-10-06T09:16:50.367Z,9.07
2023-10-06T09:19:54.420Z,8.91
2023-10-06T09:23:00.740Z,9.00
2023-10-06T09:26:09.274Z,9.08
2023-10-06T09:29:14.131Z,9.01
2023-10-06T09:32:23.230Z,8.78
2023-10-06T09:35:30.484Z,8.97
2023-10-06T09:38:35.304Z,8.96
2023-10-06T09:41:40.533Z,8.94
2023-10-06T09:44:47.275Z,8.99
2023-10-06T09:47:52.619Z,8.94
2023-10-06T09:50:57.139Z,8.70
2023-10-06T09:54:04.281Z,8.69
2023-10-06T09:57:12.517Z,8.56
2023-10-06T10:00:25.896Z,8.81
2023-10-06T10:03:44.036Z,8.75
2023-10-06T10:06:49.673Z,8.59
2023-10-06T10:09:55.370Z,8.58
2023-10-06T10:13:09.811Z,8.53
2023-10-06T10:16:14.535Z,8.57
2023-10-06T10:19:25.664Z,8.49
2023-10-06T10:22:30.828Z,8.49
2023-10-06T10:25:38.269Z,8.44
2023-10-06T10:28:42.509Z,8.49
2023-10-06T10:32:05.030Z,8.49
2023-10-06T10:35:15.596Z,8.53
2023-10-06T10:38:19.781Z,8.58
2023-10-06T10:41:29.221Z,8.43
2023-10-06T10:44:35.640Z,8.30
2023-10-06T10:47:39.986Z,8.21
2023-10-06T10:51:08.773Z,8.50
2023-10-06T10:54:14.200Z,8.44
2023-10-06T10:57:23.340Z,8.20
2023-10-06T11:00:28.191Z,8.35
2023-10-06T11:03:35.662Z,8.19
2023-10-06T11:07:26.274Z,8.29
2023-10-06T11:11:01.011Z,8.07
2023-10-06T11:14:06.705Z,8.04
2023-10-06T11:17:14.456Z,8.06
2023-10-06T11:20:24.289Z,8.29
2023-10-06T11:23:44.119Z,8.18
2023-10-06T11:26:49.050Z,7.72
2023-10-06T11:29:54.656Z,7.67
2023-10-06T11:32:59.697Z,8.02
2023-10-06T11:36:06.461Z,8.21
2023-10-06T11:39:10.688Z,8.23
2023-10-06T11:42:34.628Z,8.31
2023-10-06T11:45:39.259Z,8.35
2023-10-06T11:48:44.235Z,8.38
2023-10-06T11:51:51.569Z,8.27
2023-10-06T11:54:58.508Z,8.20
2023-10-06T11:58:06.754Z,8.18
2023-10-06T12:01:40.012Z,8.24
2023-10-06T12:04:45.585Z,8.20
2023-10-06T12:07:52.835Z,8.33
2023-10-06T12:11:06.043Z,8.35
2023-10-06T12:14:13.507Z,8.28
2023-10-06T12:17:18.386Z,8.09
2023-10-06T12:20:22.593Z,7.69
2023-10-06T12:23:26.473Z,7.56
2023-10-06T12:26:33.484Z,7.62
2023-10-06T12:29:38.388Z,7.35
2023-10-06T12:32:47.902Z,7.69
2023-10-06T12:35:54.845Z,7.62
2023-10-06T12:39:01.713Z,7.67
2023-10-06T12:42:07.086Z,7.62
2023-10-06T12:45:15.557Z,7.65
2023-10-06T12:48:19.861Z,7.49
2023-10-06T12:51:30.271Z,7.44
2023-10-06T12:54:34.145Z,7.16
2023-10-06T12:57:40.835Z,7.16
2023-10-06T13:00:45.576Z,6.93
2023-10-06T13:03:52.819Z,6.95
2023-10-06T13:07:01.061Z,7.00
2023-10-06T13:10:09.167Z,6.98
2023-10-06T13:13:14.351Z,6.82
2023-10-06T13:16:22.154Z,6.66
2023-10-06T13:19:26.567Z,6.82
2023-10-06T13:22:32.058Z,6.73
2023-10-06T13:25:41.895Z,6.59
2023-10-06T13:28:47.377Z,6.58
2023-10-06T13:31:51.694Z,6.58
2023-10-06T13:34:55.615Z,6.68
2023-10-06T13:38:00.373Z,6.69
2023-10-06T13:41:06.457Z,6.66
2023-10-06T13:44:13.532Z,6.46
2023-10-06T13:47:19.773Z,6.54
2023-10-06T13:50:33.017Z,6.34
2023-10-06T13:53:38.543Z,6.37
2023-10-06T13:56:43.856Z,6.08
2023-10-06T13:59:49.085Z,6.40
2023-10-06T14:02:54.116Z,6.35
2023-10-06T14:06:01.608Z,6.20
2023-10-06T14:09:07.971Z,5.80
2023-10-06T14:12:15.990Z,5.70
2023-10-06T14:15:24.183Z,5.46
2023-10-06T14:18:31.813Z,5.40
2023-10-06T14:21:36.471Z,5.66
2023-10-06T14:24:41.381Z,5.68
2023-10-06T14:27:45.975Z,5.37
2023-10-06T14:30:52.809Z,5.32
2023-10-06T14:34:20.586Z,5.26
2023-10-06T14:37:41.297Z,5.25
2023-10-06T14:41:13.952Z,5.20
2023-10-06T14:44:37.150Z,5.01
2023-10-06T14:47:43.550Z,5.05
2023-10-06T14:50:57.825Z,4.99
2023-10-06T14:54:03.833Z,5.19
2023-10-06T14:57:09.082Z,5.21
2023-10-06T15:00:16.007Z,5.13
2023-10-06T15:03:21.159Z,5.13
2023-10-06T15:06:28.068Z,5.09
2023-10-06T15:09:35.490Z,5.06
2023-10-06T15:12:41.373Z,5.04
2023-10-06T15:15:46.346Z,4.91
2023-10-06T15:18:50.908Z,4.99
2023-10-06T15:21:56.864Z,5.01
2023-10-06T15:25:01.468Z,5.09
2023-10-06T15:28:09.748Z,5.30
2023-10-06T15:31:19.010Z,5.48
2023-10-06T15:34:23.372Z,5.48
2023-10-06T15:37:27.902Z,5.49
2023-10-06T15:40:33.554Z,5.57
2023-10-06T15:43:43.265Z,5.67
2023-10-06T15:46:51.871Z,5.75
2023-10-06T15:50:06.169Z,5.85
2023-10-06T15:53:15.043Z,5.85
2023-10-06T15:56:21.568Z,5.67
2023-10-06T15:59:26.928Z,5.53
2023-10-06T16:02:32.040Z,5.38
2023-10-06T16:05:38.440Z,5.39
2023-10-06T16:08:45.273Z,5.38
2023-10-06T16:11:50.210Z,5.30
2023-10-06T16:14:54.402Z,5.28
2023-10-06T16:17:59.161Z,4.43
2023-10-06T16:21:04.339Z,4.83
2023-10-06T16:24:09.090Z,4.98
2023-10-06T16:27:13.835Z,4.78
2023-10-06T16:30:19.295Z,4.75
2023-10-06T16:33:23.198Z,4.88
2023-10-06T16:36:27.737Z,4.83
2023-10-06T16:39:32.076Z,4.73
2023-10-06T16:42:36.962Z,4.85
2023-10-06T16:45:40.855Z,4.79
2023-10-06T16:48:48.499Z,4.69
2023-10-06T16:51:53.359Z,4.43
2023-10-06T16:54:58.879Z,4.35
2023-10-06T16:58:03.878Z,4.41
2023-10-06T17:01:11.921Z,4.40
2023-10-06T17:04:20.704Z,4.23
2023-10-06T17:07:25.566Z,4.27
2023-10-06T17:10:30.981Z,4.25
2023-10-06T17:13:39.289Z,4.24
2023-10-06T17:16:43.329Z,4.28
2023-10-06T17:19:48.103Z,4.34
2023-10-06T17:22:52.492Z,4.39
2023-10-06T17:25:57.163Z,4.41
2023-10-06T17:29:01.062Z,4.24
2023-10-06T17:32:06.738Z,4.38
2023-10-06T17:35:11.206Z,4.38
2023-10-06T17:38:15.974Z,4.22
2023-10-06T17:41:20.110Z,4.08
2023-10-06T17:44:25.327Z,4.01
2023-10-06T17:47:30.068Z,3.98
2023-10-06T17:50:34.807Z,4.07
2023-10-06T17:53:39.533Z,4.06
2023-10-06T17:56:44.166Z,3.66
2023-10-06T17:59:48.064Z,3.79
2023-10-06T18:02:53.481Z,3.75
2023-10-06T18:05:58.343Z,3.91
2023-10-06T18:09:03.317Z,3.96
2023-10-06T18:12:24.197Z,4.01
2023-10-06T18:15:31.377Z,3.85
2023-10-06T18:18:35.436Z,4.15
2023-10-06T18:21:40.989Z,4.20
2023-10-06T18:24:45.744Z,4.24
2023-10-06T18:27:50.607Z,4.20
2023-10-06T18:30:55.330Z,4.07
2023-10-06T18:33:59.980Z,3.98
2023-10-06T18:37:04.270Z,4.28
2023-10-06T18:40:09.143Z,4.29
2023-10-06T18:43:12.960Z,4.34
2023-10-06T18:46:21.091Z,4.30
2023-10-06T18:49:25.402Z,4.52
2023-10-06T18:52:29.889Z,4.54
2023-10-06T18:55:34.610Z,4.57
2023-10-06T18:58:38.815Z,4.51
2023-10-06T19:01:43.304Z,4.18
2023-10-06T19:04:47.625Z,3.80
2023-10-06T19:07:52.419Z,4.00
2023-10-06T19:10:59.693Z,4.10
2023-10-06T19:14:09.534Z,3.94
2023-10-06T19:17:14.163Z,3.95
2023-10-06T19:20:19.062Z,3.86
2023-10-06T19:23:23.024Z,3.48
2023-10-06T19:26:28.297Z,3.78
2023-10-06T19:29:35.735Z,3.79
2023-10-06T19:32:41.748Z,3.48
2023-10-06T19:35:46.143Z,3.40
2023-10-06T19:38:52.330Z,3.55
2023-10-06T19:42:00.018Z,3.47
2023-10-06T19:45:07.343Z,2.88
2023-10-06T19:48:11.501Z,3.53
2023-10-06T19:51:19.941Z,3.60
2023-10-06T19:54:27.551Z,3.35
2023-10-06T19:57:32.806Z,3.55
2023-10-06T20:00:39.824Z,3.83
2023-10-06T20:03:45.163Z,3.66
2023-10-06T20:06:49.212Z,3.74
2023-10-06T20:09:54.040Z,3.62
2023-10-06T20:13:02.120Z,3.45
2023-10-06T20:16:18.410Z,3.44
2023-10-06T20:19:25.086Z,3.32
2023-10-06T20:22:29.198Z,3.18
2023-10-06T20:25:34.508Z,3.29
2023-10-06T20:28:38.747Z,3.40
2023-10-06T20:31:42.806Z,3.32
2023-10-06T20:34:48.487Z,3.43
2023-10-06T20:37:52.756Z,3.30
2023-10-06T20:40:57.095Z,3.42
2023-10-06T20:44:02.252Z,3.16
2023-10-06T20:47:06.902Z,3.27
2023-10-06T20:50:14.832Z,3.27
2023-10-06T20:53:19.426Z,3.27
2023-10-06T20:56:24.141Z,3.40
2023-10-06T20:59:30.343Z,3.40
2023-10-06T21:02:38.975Z,3.39
2023-10-06T21:05:43.231Z,3.29
2023-10-06T21:08:48.678Z,3.19
2023-10-06T21:11:53.090Z,3.55
2023-10-06T21:14:58.444Z,3.35
2023-10-06T21:18:03.917Z,3.18
2023-10-06T21:21:08.754Z,3.11
2023-10-06T21:24:12.631Z,2.98
2023-10-06T21:27:18.657Z,3.06
2023-10-06T21:30:22.686Z,2.76
2023-10-06T21:33:26.992Z,3.06
2023-10-06T21:36:32.448Z,3.10
2023-10-06T21:39:39.071Z,3.37
2023-10-06T21:42:43.688Z,3.02
2023-10-06T21:45:48.137Z,3.21
2023-10-06T21:48:52.271Z,3.21
2023-10-06T21:51:56.606Z,3.34
2023-10-06T21:55:00.959Z,3.26
2023-10-06T21:58:09.212Z,3.39
2023-10-06T22:01:21.346Z,3.49
2023-10-06T22:04:27.604Z,3.82
2023-10-06T22:07:31.859Z,3.99
2023-10-06T22:10:37.357Z,4.24
2023-10-06T22:13:47.572Z,3.92
2023-10-06T22:16:52.526Z,3.81
2023-10-06T22:19:57.227Z,3.89
2023-10-06T22:23:01.615Z,4.19
2023-10-06T22:26:06.710Z,4.20
2023-10-06T22:29:10.524Z,4.17
2023-10-06T22:32:16.378Z,4.35
2023-10-06T22:35:24.028Z,3.86
2023-10-06T22:38:28.394Z,3.87
2023-10-06T22:41:32.782Z,4.11
2023-10-06T22:44:38.189Z,4.26
2023-10-06T22:47:42.538Z,4.44
2023-10-06T22:50:46.677Z,4.86
2023-10-06T22:53:50.843Z,4.82
2023-10-06T22:56:55.032Z,5.05
2023-10-06T23:00:00.882Z,4.96
2023-10-06T23:03:07.555Z,4.80
2023-10-06T23:06:14.905Z,5.36
2023-10-06T23:12:53.019Z,5.50
2023-10-06T23:16:05.734Z,5.79
2023-10-06T23:25:05.768Z,6.18
2023-10-06T23:28:41.298Z,5.44
2023-10-06T23:31:58.519Z,6.40
2023-10-06T23:35:02.121Z,6.55
2023-10-06T23:38:13.724Z,6.33
2023-10-06T23:41:19.650Z,6.55
2023-10-06T23:44:24.120Z,6.88
2023-10-06T23:47:31.079Z,6.88
2023-10-06T23:50:35.818Z,6.88
2023-10-06T23:53:40.093Z,7.12
2023-10-06T23:56:44.915Z,7.08
2023-10-06T23:59:52.848Z,7.33
